Time;durP1;ratioP1;P1;durP2;ratioP2;P2;SDS_P1;SDS_P2;PMS_P1;PMS_P2;Temp;Humidity;BMP_temperature;BMP_pressure;BME280_temperature;BME280_humidity;BME280_pressure;Samples;Min_cycle;Max_cycle;Signal;HPM_P1;HPM_P2
2022/09/09 00:01:10;;;;;;;10.27;7.25;;;15.70;99.90;;;;;;5135326;27;20047;-59
2022/09/09 00:03:51;;;;;;;10.38;7.05;;;15.70;99.90;;;;;;5117527;27;20051;-59
2022/09/09 00:07:03;;;;;;;12.63;7.65;;;15.70;99.90;;;;;;5135687;27;20053;-59
2022/09/09 00:09:34;;;;;;;13.20;8.35;;;15.60;99.90;;;;;;5135424;27;20055;-59
2022/09/09 00:12:37;;;;;;;11.90;8.70;;;15.60;99.90;;;;;;5135215;27;20059;-58
2022/09/09 00:15:19;;;;;;;12.93;8.50;;;15.60;99.90;;;;;;5130894;27;20472;-59
2022/09/09 00:18:25;;;;;;;13.88;9.30;;;15.50;99.90;;;;;;5135301;27;20043;-59
2022/09/09 00:21:17;;;;;;;13.38;9.05;;;15.50;99.90;;;;;;5116779;27;20133;-59
2022/09/09 00:23:54;;;;;;;10.63;8.77;;;15.50;99.90;;;;;;5135279;27;20533;-59
2022/09/09 00:26:38;;;;;;;11.93;8.65;;;15.50;99.90;;;;;;5134875;27;20377;-59
2022/09/09 00:29:33;;;;;;;15.55;9.43;;;15.50;99.90;;;;;;5134584;27;20348;-59
2022/09/09 00:32:05;;;;;;;13.93;9.80;;;15.40;99.90;;;;;;5134631;27;20074;-59
2022/09/09 00:34:32;;;;;;;13.68;10.00;;;15.40;99.90;;;;;;5134843;27;20043;-59
2022/09/09 00:36:59;;;;;;;14.98;9.50;;;15.40;99.90;;;;;;5135229;27;20058;-59
2022/09/09 00:39:30;;;;;;;12.90;10.45;;;15.40;99.90;;;;;;5134617;27;20110;-59
2022/09/09 00:42:02;;;;;;;14.02;10.50;;;15.30;99.90;;;;;;5134961;27;20039;-59
2022/09/09 00:44:35;;;;;;;15.82;10.07;;;15.40;99.90;;;;;;5134837;27;20039;-58
2022/09/09 00:47:38;;;;;;;13.85;10.00;;;15.30;99.90;;;;;;5116112;27;20504;-59
2022/09/09 00:50:40;;;;;;;14.10;10.35;;;15.30;99.90;;;;;;5116138;27;20047;-59
2022/09/09 00:53:28;;;;;;;13.55;9.18;;;15.20;99.90;;;;;;5101727;27;20146;-59
2022/09/09 00:56:05;;;;;;;13.27;10.07;;;15.40;99.90;;;;;;5116018;27;20143;-59
2022/09/09 00:58:31;;;;;;;18.20;9.27;;;15.20;99.90;;;;;;5134560;27;20073;-59
2022/09/09 01:01:08;;;;;;;16.30;7.85;;;15.20;99.90;;;;;;5116211;27;20126;-59
2022/09/09 01:03:37;;;;;;;12.45;8.35;;;15.20;99.90;;;;;;5134041;27;20035;-59
2022/09/09 01:06:21;;;;;;;11.95;7.40;;;15.20;99.90;;;;;;5134240;27;20073;-59
2022/09/09 01:09:05;;;;;;;10.88;6.97;;;15.20;99.90;;;;;;5134407;27;20089;-59
2022/09/09 01:11:49;;;;;;;10.23;7.40;;;15.20;99.90;;;;;;5134232;27;20043;-59
2022/09/09 01:14:45;;;;;;;14.10;7.38;;;15.20;99.90;;;;;;5114878;27;20462;-59
2022/09/09 01:17:15;;;;;;;10.80;7.28;;;15.20;99.90;;;;;;5133934;27;20104;-59
2022/09/09 01:19:47;;;;;;;11.57;6.72;;;15.20;99.90;;;;;;5133716;27;20574;-59
2022/09/09 01:22:52;;;;;;;9.77;6.60;;;15.20;99.90;;;;;;5133654;27;20047;-59
2022/09/09 01:25:25;;;;;;;10.23;7.00;;;15.10;99.90;;;;;;5110303;27;20116;-59
2022/09/09 01:27:55;;;;;;;11.65;7.53;;;15.10;99.90;;;;;;5115492;27;20051;-59
2022/09/09 01:30:21;;;;;;;11.02;6.85;;;15.10;99.90;;;;;;5133938;27;20134;-59
2022/09/09 01:32:51;;;;;;;10.27;6.80;;;15.10;99.90;;;;;;5098269;27;20429;-59
2022/09/09 01:35:46;;;;;;;10.68;7.55;;;15.00;99.90;;;;;;5133429;27;20050;-59
2022/09/09 01:38:13;;;;;;;9.82;7.20;;;15.00;99.90;;;;;;5133435;27;20047;-59
2022/09/09 01:40:39;;;;;;;13.13;7.18;;;15.00;99.90;;;;;;5098604;27;20047;-59
2022/09/09 01:43:06;;;;;;;10.77;7.15;;;15.00;99.90;;;;;;5133556;27;20425;-59
2022/09/09 01:45:32;;;;;;;11.30;6.90;;;15.00;99.90;;;;;;5133180;27;20047;-59
2022/09/09 01:47:59;;;;;;;10.60;6.82;;;15.00;99.90;;;;;;5133523;27;20121;-59
2022/09/09 01:50:25;;;;;;;8.60;6.63;;;15.00;99.90;;;;;;5133195;27;20054;-59
2022/09/09 01:52:55;;;;;;;11.80;7.15;;;14.90;99.90;;;;;;5133381;27;20408;-60
2022/09/09 01:55:33;;;;;;;11.27;7.68;;;15.00;99.90;;;;;;5132792;27;20507;-59
2022/09/09 01:58:17;;;;;;;11.07;6.97;;;14.90;99.90;;;;;;5097900;27;20059;-59
2022/09/09 02:01:21;;;;;;;11.32;7.35;;;14.90;99.90;;;;;;5115197;27;20062;-59
2022/09/09 02:03:52;;;;;;;9.95;6.75;;;14.90;99.90;;;;;;5084564;27;20050;-60
2022/09/09 02:06:30;;;;;;;12.23;7.30;;;14.90;99.90;;;;;;5114718;27;20390;-59
2022/09/09 02:08:57;;;;;;;12.20;7.00;;;14.90;99.90;;;;;;5133546;27;20054;-59
2022/09/09 02:11:26;;;;;;;8.40;6.85;;;14.90;99.90;;;;;;5132906;27;20047;-60
2022/09/09 02:14:05;;;;;;;10.68;7.50;;;14.90;99.90;;;;;;5114370;27;20083;-59
2022/09/09 02:17:01;;;;;;;12.55;7.95;;;14.90;99.90;;;;;;5132455;27;20051;-59
2022/09/09 02:19:35;;;;;;;11.18;7.80;;;14.90;99.90;;;;;;5112450;27;20465;-60
2022/09/09 02:22:02;;;;;;;12.10;8.77;;;14.90;99.90;;;;;;5133424;27;20142;-60
2022/09/09 02:24:31;;;;;;;12.43;8.65;;;14.90;99.90;;;;;;5132631;27;20088;-59
2022/09/09 02:27:00;;;;;;;12.27;8.93;;;14.90;99.90;;;;;;5114822;28;20065;-59
2022/09/09 02:29:30;;;;;;;13.75;9.32;;;14.90;99.90;;;;;;5132512;27;20129;-59
2022/09/09 02:32:01;;;;;;;12.38;9.75;;;14.90;99.90;;;;;;5132835;27;20130;-59
2022/09/09 02:34:30;;;;;;;12.90;9.25;;;14.90;99.90;;;;;;5132502;27;20035;-60
2022/09/09 02:36:59;;;;;;;15.70;10.32;;;14.90;99.90;;;;;;5132286;27;20099;-59
2022/09/09 02:39:25;;;;;;;15.63;10.15;;;14.90;99.90;;;;;;5114405;28;20039;-60
2022/09/09 02:41:51;;;;;;;13.63;9.38;;;14.90;99.90;;;;;;5114691;28;20039;-60
2022/09/09 02:44:18;;;;;;;13.57;10.02;;;14.90;99.90;;;;;;5132112;28;20043;-59
2022/09/09 02:47:10;;;;;;;14.68;10.23;;;14.90;99.90;;;;;;5132506;28;20399;-59
2022/09/09 02:49:55;;;;;;;12.27;9.50;;;14.90;99.90;;;;;;5132404;28;20107;-59
2022/09/09 02:52:29;;;;;;;13.38;10.18;;;14.90;99.90;;;;;;5132341;28;20047;-59
2022/09/09 02:54:59;;;;;;;;;;;14.90;99.90;;;;;;5114686;28;20046;-59
2022/09/09 02:57:30;;;;;;;11.80;9.25;;;14.90;99.90;;;;;;5132022;28;19919;-59
2022/09/09 03:00:00;;;;;;;14.32;9.00;;;14.90;99.90;;;;;;5132632;28;20122;-59
2022/09/09 03:02:26;;;;;;;13.95;9.60;;;14.90;99.90;;;;;;5132252;28;20054;-59
2022/09/09 03:04:51;;;;;;;12.20;9.38;;;14.90;99.90;;;;;;5132508;28;20039;-59
2022/09/09 03:07:18;;;;;;;16.55;9.43;;;15.00;99.90;;;;;;5097046;28;20126;-60
2022/09/09 03:09:44;;;;;;;14.20;8.95;;;14.90;99.90;;;;;;5131879;28;20108;-60
2022/09/09 03:12:11;;;;;;;11.73;8.95;;;15.00;99.90;;;;;;5132329;28;20047;-60
2022/09/09 03:14:37;;;;;;;14.88;9.77;;;15.00;99.90;;;;;;5131517;28;20051;-59
2022/09/09 03:17:05;;;;;;;11.10;8.70;;;14.90;99.90;;;;;;5132482;28;20051;-59
2022/09/09 03:19:31;;;;;;;16.92;9.13;;;15.00;99.90;;;;;;5113851;28;20046;-59
2022/09/09 03:21:58;;;;;;;14.55;9.55;;;15.00;99.90;;;;;;5132461;28;20046;-60
2022/09/09 03:24:24;;;;;;;13.18;9.25;;;15.00;99.90;;;;;;5132077;28;20051;-60
2022/09/09 03:26:50;;;;;;;12.48;8.40;;;14.90;99.90;;;;;;5132416;28;20051;-60
2022/09/09 03:29:17;;;;;;;12.90;8.45;;;15.00;99.90;;;;;;5132208;28;20222;-59
2022/09/09 03:31:43;;;;;;;10.82;7.78;;;15.00;99.90;;;;;;5131842;28;20636;-59
2022/09/09 03:34:10;;;;;;;12.77;8.07;;;14.90;99.90;;;;;;5132273;28;20044;-60
2022/09/09 03:36:36;;;;;;;9.48;7.63;;;14.90;99.90;;;;;;5131980;28;20074;-59
2022/09/09 03:39:03;;;;;;;14.50;8.00;;;14.90;99.90;;;;;;5132145;28;20039;-60
2022/09/09 03:41:29;;;;;;;11.40;7.18;;;15.00;99.90;;;;;;5131950;28;20058;-59
2022/09/09 03:43:55;;;;;;;10.10;7.32;;;14.90;99.90;;;;;;5114079;28;20115;-60
2022/09/09 03:46:22;;;;;;;11.15;7.35;;;15.00;99.90;;;;;;5097210;28;20499;-60
2022/09/09 03:48:48;;;;;;;11.98;7.00;;;14.90;99.90;;;;;;5131897;27;20096;-60
2022/09/09 03:51:14;;;;;;;9.25;7.10;;;14.90;99.90;;;;;;5135464;27;20043;-60
2022/09/09 03:53:40;;;;;;;12.55;7.00;;;14.90;99.90;;;;;;5135535;27;20062;-59
2022/09/09 03:56:06;;;;;;;10.90;5.45;;;15.00;99.90;;;;;;5135629;27;20043;-59
2022/09/09 03:58:39;;;;;;;7.95;5.13;;;15.00;99.90;;;;;;5135466;27;20047;-60
2022/09/09 04:01:13;;;;;;;7.93;5.40;;;15.00;99.90;;;;;;5135679;27;20039;-60
2022/09/09 04:03:40;;;;;;;8.00;4.70;;;15.00;99.90;;;;;;5135292;27;20043;-60
2022/09/09 04:06:07;;;;;;;8.30;5.00;;;15.00;99.90;;;;;;5135615;27;20465;-60
2022/09/09 04:08:35;;;;;;;5.97;4.10;;;15.00;99.90;;;;;;5135213;27;20055;-59
2022/09/09 04:11:06;;;;;;;8.23;4.20;;;15.10;99.90;;;;;;5135329;27;20139;-59
2022/09/09 04:13:33;;;;;;;7.30;4.20;;;15.00;99.90;;;;;;5134892;27;20129;-59
2022/09/09 04:16:01;;;;;;;7.07;3.75;;;15.10;99.90;;;;;;5135190;27;20047;-60
2022/09/09 04:18:28;;;;;;;7.30;3.78;;;15.10;99.90;;;;;;5135386;27;20050;-60
2022/09/09 04:20:54;;;;;;;7.35;3.72;;;15.10;99.90;;;;;;5134847;27;20051;-59
2022/09/09 04:23:20;;;;;;;8.00;3.95;;;15.20;99.90;;;;;;5135238;27;20043;-59
2022/09/09 04:25:51;;;;;;;9.20;3.40;;;15.20;99.90;;;;;;5134740;27;20039;-59
2022/09/09 04:28:19;;;;;;;7.45;3.90;;;15.20;99.90;;;;;;5116871;27;20184;-60
2022/09/09 04:30:45;;;;;;;6.45;3.75;;;15.20;99.90;;;;;;5099572;27;20050;-60
2022/09/09 04:33:12;;;;;;;6.80;3.05;;;15.20;99.90;;;;;;5116498;27;20054;-59
2022/09/09 04:35:38;;;;;;;8.32;3.53;;;15.20;99.90;;;;;;5115999;27;20491;-60
2022/09/09 04:38:05;;;;;;;8.50;3.30;;;15.20;99.90;;;;;;5134760;27;20133;-60
2022/09/09 04:40:31;;;;;;;8.27;3.45;;;15.30;99.90;;;;;;5116420;27;20047;-59
2022/09/09 04:43:03;;;;;;;7.97;3.20;;;15.30;99.90;;;;;;5116170;27;20051;-59
2022/09/09 04:45:30;;;;;;;5.28;3.53;;;15.20;99.90;;;;;;5134122;27;20043;-59
2022/09/09 04:47:55;;;;;;;6.90;3.50;;;15.20;99.90;;;;;;5133979;27;20077;-60
2022/09/09 04:50:21;;;;;;;7.57;3.42;;;15.20;99.90;;;;;;5099363;27;20129;-60
2022/09/09 04:52:47;;;;;;;7.43;3.90;;;15.20;99.90;;;;;;5115939;27;20041;-59
2022/09/09 04:55:13;;;;;;;7.72;3.80;;;15.20;99.90;;;;;;5134210;27;20481;-61
2022/09/09 04:57:39;;;;;;;7.47;4.05;;;15.20;99.90;;;;;;5115772;27;20122;-59
2022/09/09 05:00:05;;;;;;;;;;;15.20;99.90;;;;;;5132217;27;20492;-59
2022/09/09 05:02:32;;;;;;;7.05;3.97;;;15.20;99.90;;;;;;5134318;27;19920;-60
2022/09/09 05:04:58;;;;;;;10.30;4.97;;;15.20;99.90;;;;;;5133584;27;20043;-60
2022/09/09 05:07:26;;;;;;;8.20;5.05;;;15.20;99.90;;;;;;5133963;27;20097;-60
2022/09/09 05:09:51;;;;;;;8.07;4.82;;;15.10;99.90;;;;;;5133699;27;20122;-59
2022/09/09 05:12:17;;;;;;;7.82;4.50;;;15.10;99.90;;;;;;5134415;27;20126;-59
2022/09/09 05:14:43;;;;;;;14.52;5.65;;;15.20;99.90;;;;;;5114344;27;20059;-59
2022/09/09 05:17:10;;;;;;;9.35;5.20;;;15.20;99.90;;;;;;5133672;27;20082;-59
2022/09/09 05:19:36;;;;;;;9.00;5.90;;;15.20;99.90;;;;;;5115593;27;20196;-60
2022/09/09 05:22:02;;;;;;;10.30;5.57;;;15.10;99.90;;;;;;5133947;27;20080;-61
2022/09/09 05:24:28;;;;;;;9.52;6.07;;;15.10;99.90;;;;;;5133899;27;20289;-59
2022/09/09 05:26:54;;;;;;;7.95;5.85;;;15.10;99.90;;;;;;5133509;27;20058;-59
2022/09/09 05:29:19;;;;;;;11.70;6.82;;;15.10;99.90;;;;;;5133792;27;20369;-60
2022/09/09 05:31:46;;;;;;;9.68;5.90;;;15.10;99.90;;;;;;5133370;27;20046;-60
2022/09/09 05:34:12;;;;;;;7.95;6.25;;;15.00;99.90;;;;;;5133649;27;20043;-60
2022/09/09 05:36:38;;;;;;;11.32;7.07;;;15.00;99.90;;;;;;5133576;27;20054;-60
2022/09/09 05:39:04;;;;;;;10.68;7.30;;;14.90;99.90;;;;;;5133570;27;20051;-59
2022/09/09 05:41:31;;;;;;;11.35;7.22;;;15.00;99.90;;;;;;5115286;27;20093;-60
2022/09/09 05:43:58;;;;;;;10.45;7.78;;;15.00;99.90;;;;;;5133218;27;20055;-60
2022/09/09 05:46:27;;;;;;;12.02;7.93;;;15.00;99.90;;;;;;5133363;27;20069;-60
2022/09/09 05:48:53;;;;;;;11.00;7.65;;;15.00;99.90;;;;;;5114452;27;20095;-60
2022/09/09 05:51:21;;;;;;;9.20;7.22;;;15.00;99.90;;;;;;5114836;27;20061;-59
2022/09/09 05:53:48;;;;;;;14.70;8.98;;;15.00;99.90;;;;;;5133232;27;20130;-59
2022/09/09 05:56:23;;;;;;;12.98;8.82;;;15.00;99.90;;;;;;5133329;27;20046;-60
2022/09/09 05:58:50;;;;;;;12.50;9.00;;;15.00;99.90;;;;;;5097836;27;20046;-60
2022/09/09 06:01:22;;;;;;;11.02;8.15;;;15.00;99.90;;;;;;5115144;27;20393;-60
2022/09/09 06:03:49;;;;;;;10.48;8.27;;;15.00;99.90;;;;;;5132975;27;20051;-60
2022/09/09 06:06:21;;;;;;;12.82;9.07;;;15.00;99.90;;;;;;5133324;27;20426;-60
2022/09/09 06:08:48;;;;;;;13.80;8.65;;;15.00;99.90;;;;;;5114397;27;20496;-60
2022/09/09 06:11:17;;;;;;;13.68;8.52;;;15.10;99.90;;;;;;5133082;27;20042;-59
2022/09/09 06:13:43;;;;;;;11.20;8.13;;;15.10;99.90;;;;;;5132190;27;20062;-60
2022/09/09 06:16:11;;;;;;;13.60;9.15;;;15.10;99.90;;;;;;5114640;27;20058;-60
2022/09/09 06:18:40;;;;;;;11.98;8.30;;;15.10;99.90;;;;;;5114715;27;20492;-60
2022/09/09 06:21:11;;;;;;;13.00;9.43;;;15.10;99.90;;;;;;5132674;27;20054;-59
2022/09/09 06:23:39;;;;;;;11.38;8.30;;;15.10;99.90;;;;;;5133097;27;20080;-60
2022/09/09 06:26:10;;;;;;;11.15;8.10;;;15.10;99.90;;;;;;5114113;27;20334;-59
2022/09/09 06:28:36;;;;;;;14.00;8.40;;;15.20;99.90;;;;;;5132982;27;20047;-61
2022/09/09 06:31:05;;;;;;;12.20;7.93;;;15.10;99.90;;;;;;5132082;27;20480;-59
2022/09/09 06:33:34;;;;;;;13.40;8.00;;;15.20;99.90;;;;;;5132709;27;20380;-59
2022/09/09 06:36:01;;;;;;;12.52;7.45;;;15.20;99.90;;;;;;5132266;27;20556;-60
2022/09/09 06:38:27;;;;;;;13.02;7.93;;;15.20;99.90;;;;;;5132676;28;20039;-59
2022/09/09 06:40:58;;;;;;;10.45;8.38;;;15.30;99.90;;;;;;5132233;28;20047;-60
2022/09/09 06:43:25;;;;;;;9.88;7.35;;;15.30;99.90;;;;;;5114694;28;20055;-60
2022/09/09 06:46:00;;;;;;;12.65;8.43;;;15.40;99.90;;;;;;5114003;28;20047;-59
2022/09/09 06:48:27;;;;;;;8.95;7.22;;;15.40;99.90;;;;;;5113899;28;20499;-59
2022/09/09 06:51:13;;;;;;;8.25;7.10;;;15.50;99.90;;;;;;5132311;28;20434;-59
2022/09/09 06:53:41;;;;;;;10.23;7.60;;;15.50;99.90;;;;;;5132766;28;20400;-59
2022/09/09 06:56:10;;;;;;;10.30;7.20;;;15.60;99.90;;;;;;5132322;28;20047;-59
2022/09/09 06:58:36;;;;;;;10.50;7.10;;;15.70;99.90;;;;;;5132667;28;20047;-60
2022/09/09 07:01:06;;;;;;;10.20;6.93;;;15.80;99.90;;;;;;5132245;28;20046;-59
2022/09/09 07:03:33;;;;;;;10.68;6.72;;;15.90;99.90;;;;;;5114333;28;20047;-60
2022/09/09 07:05:59;;;;;;;7.57;6.43;;;16.00;99.90;;;;;;5113858;28;20422;-59
2022/09/09 07:08:26;;;;;;;12.82;7.07;;;16.00;99.90;;;;;;5114579;28;20043;-59
2022/09/09 07:10:53;;;;;;;8.32;6.55;;;16.10;99.90;;;;;;5132163;28;20059;-59
2022/09/09 07:13:28;;;;;;;10.75;6.45;;;16.20;99.90;;;;;;5132140;28;20134;-58
2022/09/09 07:15:54;;;;;;;8.73;5.72;;;16.30;99.90;;;;;;5132186;28;20043;-59
2022/09/09 07:18:20;;;;;;;9.98;6.32;;;16.30;99.90;;;;;;5114432;28;20043;-59
2022/09/09 07:20:56;;;;;;;8.90;5.88;;;16.30;99.90;;;;;;5132391;28;20070;-59
2022/09/09 07:23:23;;;;;;;8.15;5.90;;;16.30;99.90;;;;;;5132837;27;20058;-59
2022/09/09 07:25:50;;;;;;;9.18;5.22;;;16.20;99.90;;;;;;5117860;27;20496;-59
2022/09/09 07:28:16;;;;;;;9.05;6.45;;;16.20;99.90;;;;;;5135770;27;20051;-59
2022/09/09 07:30:42;;;;;;;8.48;5.90;;;16.30;99.90;;;;;;5136191;27;20051;-59
2022/09/09 07:33:09;;;;;;;9.20;5.40;;;16.30;99.90;;;;;;5117577;27;20039;-59
2022/09/09 07:35:36;;;;;;;9.25;6.22;;;16.30;99.90;;;;;;5135898;27;20373;-59
2022/09/09 07:38:06;;;;;;;10.07;5.80;;;16.30;99.90;;;;;;5135973;27;20051;-60
2022/09/09 07:40:33;;;;;;;9.18;6.25;;;16.30;99.90;;;;;;5136248;27;20047;-59
2022/09/09 07:43:00;;;;;;;9.00;5.78;;;16.30;99.90;;;;;;5117530;27;20051;-59
2022/09/09 07:45:28;;;;;;;9.90;6.40;;;16.40;99.90;;;;;;5134778;27;20126;-60
2022/09/09 07:47:56;;;;;;;6.32;5.35;;;16.40;99.90;;;;;;5114900;27;20047;-60
2022/09/09 07:50:23;;;;;;;8.98;5.70;;;16.50;99.90;;;;;;5135471;27;20476;-60
2022/09/09 07:52:50;;;;;;;7.82;5.20;;;16.60;99.90;;;;;;5116861;27;20046;-59
2022/09/09 07:55:16;;;;;;;7.85;5.00;;;16.80;99.90;;;;;;5134711;27;20122;-59
2022/09/09 07:57:42;;;;;;;7.60;5.28;;;16.90;99.90;;;;;;5135514;27;20126;-60
2022/09/09 08:00:10;;;;;;;7.53;5.68;;;17.00;99.90;;;;;;5134998;27;20043;-60
2022/09/09 08:02:35;;;;;;;8.50;5.93;;;17.10;99.90;;;;;;5135100;27;20126;-60
2022/09/09 08:05:02;;;;;;;7.13;4.97;;;17.20;99.90;;;;;;5134853;27;20476;-59
2022/09/09 08:07:28;;;;;;;8.57;5.38;;;17.30;99.90;;;;;;5135179;27;20043;-59
2022/09/09 08:09:55;;;;;;;7.03;5.25;;;17.40;99.90;;;;;;5117346;27;20047;-59
2022/09/09 08:12:21;;;;;;;10.38;5.47;;;17.60;99.90;;;;;;5134832;27;20059;-59
2022/09/09 08:14:48;;;;;;;9.95;5.72;;;17.70;99.90;;;;;;5135215;27;20112;-59
2022/09/09 08:17:14;;;;;;;10.95;5.03;;;17.80;99.90;;;;;;5135004;27;20043;-60
2022/09/09 08:19:40;;;;;;;6.90;4.88;;;17.90;99.90;;;;;;5116714;27;20089;-59
2022/09/09 08:22:05;;;;;;;8.50;4.82;;;18.00;99.90;;;;;;5114964;27;20074;-59
2022/09/09 08:24:31;;;;;;;6.70;4.53;;;18.20;99.90;;;;;;5134953;27;20038;-60
2022/09/09 08:26:57;;;;;;;8.85;4.47;;;18.40;99.90;;;;;;5135052;27;20503;-60
2022/09/09 08:29:23;;;;;;;6.97;4.68;;;18.60;99.90;;;;;;5134454;27;20460;-60
2022/09/09 08:31:54;;;;;;;9.77;4.50;;;18.90;99.90;;;;;;5135042;27;20043;-59
2022/09/09 08:34:20;;;;;;;7.10;4.32;;;19.10;99.90;;;;;;5134454;27;20262;-60
2022/09/09 08:36:47;;;;;;;8.32;4.22;;;19.20;99.90;;;;;;5115625;27;20476;-60
2022/09/09 08:39:15;;;;;;;7.20;4.15;;;19.30;99.90;;;;;;5134310;27;20043;-60
2022/09/09 08:42:02;;;;;;;7.10;3.90;;;19.30;99.90;;;;;;5116395;27;20058;-59
2022/09/09 08:44:58;;;;;;;6.47;4.00;;;19.80;99.90;;;;;;5116141;27;20035;-61
2022/09/09 08:47:34;;;;;;;5.47;3.58;;;20.50;99.90;;;;;;5134182;27;20039;-60
2022/09/09 08:50:24;;;;;;;7.53;4.07;;;20.60;99.90;;;;;;5116206;27;20086;-61
2022/09/09 08:53:16;;;;;;;7.38;3.40;;;20.50;99.90;;;;;;5115989;27;20057;-59
2022/09/09 08:55:52;;;;;;;8.80;4.00;;;20.50;99.90;;;;;;5115937;27;20043;-59
2022/09/09 08:58:29;;;;;;;8.05;3.33;;;20.30;99.90;;;;;;5133963;27;20391;-59
2022/09/09 09:01:19;;;;;;;7.07;3.35;;;20.40;99.90;;;;;;5134202;27;20055;-59
2022/09/09 09:04:08;;;;;;;7.18;3.50;;;20.70;99.90;;;;;;5134398;27;20039;-59
2022/09/09 09:07:22;;;;;;;10.32;4.20;;;20.80;99.90;;;;;;5116049;27;20095;-60
2022/09/09 09:10:02;;;;;;;7.20;4.00;;;21.00;99.90;;;;;;5133542;27;20134;-59
2022/09/09 09:12:40;;;;;;;7.22;3.25;;;20.90;99.90;;;;;;5133729;27;20105;-59
2022/09/09 09:15:24;;;;;;;7.03;3.35;;;20.60;99.90;;;;;;5134113;27;20093;-60
2022/09/09 09:17:50;;;;;;;6.65;3.38;;;20.30;99.90;;;;;;5115563;27;20055;-59
2022/09/09 09:20:18;;;;;;;6.22;3.20;;;20.00;99.90;;;;;;5133855;27;20538;-61
2022/09/09 09:22:50;;;;;;;7.97;3.70;;;19.80;99.90;;;;;;5133851;27;20481;-59
2022/09/09 09:25:39;;;;;;;7.20;3.22;;;19.70;99.90;;;;;;5115003;27;20039;-59
2022/09/09 09:28:18;;;;;;;9.68;3.75;;;19.60;99.90;;;;;;5133733;27;20043;-59
2022/09/09 09:30:53;;;;;;;7.90;3.80;;;19.60;99.90;;;;;;5133772;27;20126;-60
2022/09/09 09:33:46;;;;;;;7.10;3.78;;;19.50;99.90;;;;;;5133293;27;20069;-59
2022/09/09 09:36:15;;;;;;;9.57;3.78;;;19.40;99.90;;;;;;5133463;27;20084;-61
2022/09/09 09:39:01;;;;;;;7.57;3.42;;;19.40;99.90;;;;;;5133442;27;20050;-59
2022/09/09 09:41:41;;;;;;;6.78;3.22;;;19.40;99.90;;;;;;5115332;27;20050;-59
2022/09/09 09:44:27;;;;;;;7.25;3.55;;;19.50;99.90;;;;;;5115332;27;20489;-58
2022/09/09 09:47:04;;;;;;;8.10;3.50;;;19.70;99.90;;;;;;5132682;27;20446;-59
2022/09/09 09:49:30;;;;;;;11.23;4.10;;;19.80;99.90;;;;;;5133127;27;20047;-59
2022/09/09 09:52:01;;;;;;;8.25;3.17;;;19.80;99.90;;;;;;5115155;27;20370;-60
2022/09/09 09:54:35;;;;;;;11.00;3.65;;;19.80;99.90;;;;;;5132824;27;20047;-60
2022/09/09 09:57:31;;;;;;;8.30;3.35;;;19.80;99.90;;;;;;5133348;27;20107;-59
2022/09/09 10:00:04;;;;;;;8.80;3.05;;;19.90;99.90;;;;;;5112261;27;20076;-59
2022/09/09 10:02:40;;;;;;;10.73;3.20;;;20.00;99.90;;;;;;5132743;27;20142;-59
2022/09/09 10:05:12;;;;;;;8.23;3.20;;;20.10;99.90;;;;;;5133431;27;20092;-60
2022/09/09 10:07:38;;;;;;;8.68;3.25;;;20.20;99.90;;;;;;5114392;27;20055;-60
2022/09/09 10:10:05;;;;;;;7.35;2.90;;;20.10;99.90;;;;;;5133060;27;20043;-60
2022/09/09 10:12:44;;;;;;;8.95;3.20;;;20.10;99.90;;;;;;5113739;27;20099;-59
2022/09/09 10:15:24;;;;;;;6.45;2.70;;;20.00;99.90;;;;;;5132983;27;20086;-59
2022/09/09 10:18:20;;;;;;;11.15;3.50;;;20.00;99.90;;;;;;5132598;27;20043;-60
2022/09/09 10:21:02;;;;;;;9.98;3.28;;;19.90;99.90;;;;;;5132838;27;20051;-60
2022/09/09 10:23:34;;;;;;;9.40;3.03;;;19.90;99.90;;;;;;5132615;27;20293;-60
2022/09/09 10:26:44;;;;;;;10.93;2.80;;;20.10;99.90;;;;;;5132789;27;20043;-59
2022/09/09 10:29:43;;;;;;;8.95;2.38;;;20.10;99.90;;;;;;5029111;28;20531;-59
2022/09/09 10:32:21;;;;;;;11.20;2.53;;;20.10;99.90;;;;;;5114483;28;20054;-59
2022/09/09 10:34:57;;;;;;;9.48;2.70;;;20.00;99.90;;;;;;5132736;27;20047;-59
2022/09/09 10:37:51;;;;;;;9.65;3.13;;;20.00;99.90;;;;;;5132801;28;20046;-59
2022/09/09 10:40:38;;;;;;;7.60;2.50;;;20.00;99.90;;;;;;5132894;28;20061;-59
2022/09/09 10:43:21;;;;;;;8.27;2.65;;;20.00;99.90;;;;;;5132755;28;20415;-60
2022/09/09 10:46:07;;;;;;;11.30;3.25;;;19.90;99.90;;;;;;5114355;28;20047;-60
2022/09/09 10:48:47;;;;;;;7.78;2.75;;;19.70;99.90;;;;;;5132223;28;20043;-59
2022/09/09 10:51:43;;;;;;;9.18;2.75;;;19.80;99.90;;;;;;5114659;28;20142;-59
2022/09/09 10:54:24;;;;;;;7.30;2.20;;;19.90;99.90;;;;;;5114092;28;20103;-59
2022/09/09 10:56:58;;;;;;;12.48;2.53;;;20.00;99.90;;;;;;5132471;28;20062;-59
2022/09/09 10:59:32;;;;;;;8.85;2.17;;;19.90;99.90;;;;;;5115787;27;20043;-62
2022/09/09 11:02:19;;;;;;;6.53;2.10;;;19.80;99.90;;;;;;5136817;27;20047;-59
2022/09/09 11:05:01;;;;;;;7.63;2.40;;;19.90;99.90;;;;;;5103119;27;20081;-59
2022/09/09 11:07:59;;;;;;;8.15;2.60;;;19.90;99.90;;;;;;5136046;27;20046;-60
2022/09/09 11:10:47;;;;;;;5.50;1.90;;;20.10;99.90;;;;;;5079526;27;20087;-62
2022/09/09 11:13:32;;;;;;;8.52;2.22;;;20.20;99.90;;;;;;5136350;27;20051;-59
2022/09/09 11:16:05;;;;;;;8.15;2.38;;;20.40;99.90;;;;;;5118515;27;20051;-59
2022/09/09 11:18:36;;;;;;;7.85;2.40;;;20.40;99.90;;;;;;5136034;27;20086;-59
2022/09/09 11:21:06;;;;;;;9.40;2.30;;;20.40;99.90;;;;;;5117774;27;20095;-60
2022/09/09 11:23:46;;;;;;;5.72;1.88;;;20.50;99.90;;;;;;5116934;27;20485;-59
2022/09/09 11:26:18;;;;;;;7.72;2.00;;;20.60;99.90;;;;;;5135560;27;20031;-59
2022/09/09 11:28:52;;;;;;;7.63;1.77;;;20.70;99.90;;;;;;5135487;27;20543;-59
2022/09/09 11:31:26;;;;;;;9.15;2.10;;;20.90;99.90;;;;;;5135569;27;20049;-58
2022/09/09 11:34:14;;;;;;;6.73;1.80;;;21.00;99.90;;;;;;5135297;27;20519;-58
2022/09/09 11:37:17;;;;;;;6.22;2.00;;;21.00;99.90;;;;;;5117435;27;20494;-58
2022/09/09 11:39:54;;;;;;;6.05;1.83;;;21.10;99.90;;;;;;5135721;27;20047;-58
2022/09/09 11:42:24;;;;;;;4.47;1.70;;;21.20;99.90;;;;;;5117350;27;20051;-58
2022/09/09 11:44:50;;;;;;;6.97;1.70;;;21.20;99.90;;;;;;5135270;27;20115;-62
2022/09/09 11:47:26;;;;;;;5.57;2.00;;;21.20;99.90;;;;;;5117489;27;20074;-59
2022/09/09 11:49:53;;;;;;;5.43;1.75;;;21.20;99.90;;;;;;5117179;27;20042;-58
2022/09/09 11:52:42;;;;;;;6.20;1.92;;;21.20;99.90;;;;;;5116817;27;20445;-59
2022/09/09 11:55:11;;;;;;;5.72;1.70;;;21.30;99.90;;;;;;5135656;27;20122;-59
2022/09/09 11:57:38;;;;;;;6.90;1.80;;;21.30;99.90;;;;;;5135429;27;20062;-59
2022/09/09 12:00:05;;;;;;;7.40;2.10;;;21.20;99.90;;;;;;5117396;27;20049;-59
2022/09/09 12:02:31;;;;;;;4.65;1.80;;;21.20;99.90;;;;;;5100239;27;20043;-62
2022/09/09 12:05:15;;;;;;;8.50;2.33;;;21.10;99.90;;;;;;5117327;27;20053;-59
2022/09/09 12:07:49;;;;;;;8.00;2.10;;;21.20;99.90;;;;;;5135177;27;20049;-60
2022/09/09 12:10:32;;;;;;;7.57;1.98;;;21.20;99.90;;;;;;5134254;27;20051;-59
2022/09/09 12:13:15;;;;;;;11.23;2.20;;;21.20;99.90;;;;;;5134580;27;20377;-59
2022/09/09 12:15:53;;;;;;;6.77;1.80;;;21.10;99.90;;;;;;5134829;27;20395;-59
2022/09/09 12:18:36;;;;;;;7.05;2.00;;;21.00;99.90;;;;;;5117119;27;20051;-59
2022/09/09 12:21:19;;;;;;;7.70;1.90;;;21.10;99.90;;;;;;5135215;27;20047;-59
2022/09/09 12:23:59;;;;;;;7.43;2.20;;;21.20;99.90;;;;;;5134598;27;20035;-59
2022/09/09 12:26:44;;;;;;;7.88;2.17;;;21.30;99.90;;;;;;5116615;27;20083;-59
2022/09/09 12:29:19;;;;;;;9.30;2.00;;;21.20;99.90;;;;;;5117934;27;20091;-61
2022/09/09 12:32:02;;;;;;;5.00;1.73;;;21.20;99.90;;;;;;5116418;27;20110;-58
2022/09/09 12:34:38;;;;;;;7.43;2.10;;;21.30;99.90;;;;;;5134840;27;20039;-58
2022/09/09 12:37:29;;;;;;;8.45;2.30;;;21.40;99.90;;;;;;5134871;27;20188;-59
2022/09/09 12:39:59;;;;;;;5.82;1.98;;;21.40;99.90;;;;;;5134540;27;20039;-59
2022/09/09 12:42:26;;;;;;;7.00;2.15;;;21.40;99.90;;;;;;5116465;27;20404;-59
2022/09/09 12:45:00;;;;;;;8.38;2.00;;;21.40;99.90;;;;;;5115889;27;20540;-58
2022/09/09 12:47:29;;;;;;;;;;;21.30;99.90;;;;;;5135184;27;20100;-59
2022/09/09 12:49:56;;;;;;;8.80;1.98;;;21.30;99.90;;;;;;5115956;27;19919;-59
2022/09/09 12:52:29;;;;;;;6.82;2.17;;;21.30;99.90;;;;;;5116178;27;20058;-59
2022/09/09 12:54:56;;;;;;;5.25;1.70;;;21.30;99.90;;;;;;5134010;27;20049;-59
2022/09/09 12:57:27;;;;;;;4.45;1.80;;;21.40;99.90;;;;;;5134485;27;20053;-60
2022/09/09 13:00:03;;;;;;;5.28;1.48;;;21.40;99.90;;;;;;5134039;27;20047;-58
2022/09/09 13:02:29;;;;;;;5.63;1.70;;;21.40;99.90;;;;;;5134401;27;20040;-58
2022/09/09 13:05:13;;;;;;;8.82;1.90;;;21.30;99.90;;;;;;5098621;27;20058;-59
2022/09/09 13:07:39;;;;;;;4.63;1.90;;;21.30;99.90;;;;;;5134141;27;20077;-59
2022/09/09 13:10:05;;;;;;;3.75;1.60;;;21.40;99.90;;;;;;5115210;27;20043;-59
2022/09/09 13:12:31;;;;;;;6.38;1.92;;;21.40;99.90;;;;;;5099008;27;20058;-60
2022/09/09 13:14:57;;;;;;;6.78;2.13;;;21.40;99.90;;;;;;5133629;27;20055;-59